sensor_id;sensor_type;location;lat;lon;timestamp;P1;durP1;ratioP1;P2;durP2;ratioP2
75413;SDS011;64758;52.122;5.404;2022-11-12T00:00:58;10.43;;;4.85;;
75413;SDS011;64758;52.122;5.404;2022-11-12T00:03:25;7.00;;;4.25;;
75413;SDS011;64758;52.122;5.404;2022-11-12T00:05:52;9.60;;;4.70;;
75413;SDS011;64758;52.122;5.404;2022-11-12T00:08:19;11.60;;;4.47;;
75413;SDS011;64758;52.122;5.404;2022-11-12T00:10:46;9.65;;;4.68;;
75413;SDS011;64758;52.122;5.404;2022-11-12T00:13:12;8.52;;;4.72;;
75413;SDS011;64758;52.122;5.404;2022-11-12T00:15:39;7.10;;;4.75;;
75413;SDS011;64758;52.122;5.404;2022-11-12T00:18:06;10.13;;;4.37;;
75413;SDS011;64758;52.122;5.404;2022-11-12T00:20:33;9.90;;;4.38;;
75413;SDS011;64758;52.122;5.404;2022-11-12T00:23:00;11.55;;;4.88;;
75413;SDS011;64758;52.122;5.404;2022-11-12T00:25:26;5.95;;;4.43;;
75413;SDS011;64758;52.122;5.404;2022-11-12T00:27:53;8.45;;;4.80;;
75413;SDS011;64758;52.122;5.404;2022-11-12T00:30:25;7.83;;;4.63;;
75413;SDS011;64758;52.122;5.404;2022-11-12T00:32:51;8.52;;;4.20;;
75413;SDS011;64758;52.122;5.404;2022-11-12T00:35:18;11.38;;;4.50;;
75413;SDS011;64758;52.122;5.404;2022-11-12T00:37:44;6.47;;;4.40;;
75413;SDS011;64758;52.122;5.404;2022-11-12T00:40:11;7.80;;;5.05;;
75413;SDS011;64758;52.122;5.404;2022-11-12T00:42:37;6.07;;;4.33;;
75413;SDS011;64758;52.122;5.404;2022-11-12T00:45:04;9.50;;;5.28;;
75413;SDS011;64758;52.122;5.404;2022-11-12T00:47:31;6.35;;;4.10;;
75413;SDS011;64758;52.122;5.404;2022-11-12T00:49:57;5.22;;;3.60;;
75413;SDS011;64758;52.122;5.404;2022-11-12T00:52:24;8.25;;;4.43;;
75413;SDS011;64758;52.122;5.404;2022-11-12T00:54:50;10.20;;;3.83;;
75413;SDS011;64758;52.122;5.404;2022-11-12T00:57:17;5.00;;;3.55;;
75413;SDS011;64758;52.122;5.404;2022-11-12T00:59:43;7.22;;;3.85;;
75413;SDS011;64758;52.122;5.404;2022-11-12T01:02:10;6.50;;;3.83;;
75413;SDS011;64758;52.122;5.404;2022-11-12T01:04:36;9.90;;;3.85;;
75413;SDS011;64758;52.122;5.404;2022-11-12T01:07:02;6.53;;;4.30;;
75413;SDS011;64758;52.122;5.404;2022-11-12T01:09:29;5.40;;;3.67;;
75413;SDS011;64758;52.122;5.404;2022-11-12T01:11:55;7.05;;;3.78;;
75413;SDS011;64758;52.122;5.404;2022-11-12T01:14:22;5.53;;;3.72;;
75413;SDS011;64758;52.122;5.404;2022-11-12T01:16:48;5.43;;;3.83;;
75413;SDS011;64758;52.122;5.404;2022-11-12T01:19:15;5.23;;;3.53;;
75413;SDS011;64758;52.122;5.404;2022-11-12T01:21:42;8.95;;;3.90;;
75413;SDS011;64758;52.122;5.404;2022-11-12T01:24:09;5.18;;;3.53;;
75413;SDS011;64758;52.122;5.404;2022-11-12T01:26:36;6.95;;;3.90;;
75413;SDS011;64758;52.122;5.404;2022-11-12T01:29:04;6.35;;;3.28;;
75413;SDS011;64758;52.122;5.404;2022-11-12T01:31:32;6.23;;;3.60;;
75413;SDS011;64758;52.122;5.404;2022-11-12T01:34:02;5.22;;;4.07;;
75413;SDS011;64758;52.122;5.404;2022-11-12T01:36:32;7.72;;;4.10;;
75413;SDS011;64758;52.122;5.404;2022-11-12T01:39:02;5.78;;;4.60;;
75413;SDS011;64758;52.122;5.404;2022-11-12T01:41:31;5.20;;;4.03;;
75413;SDS011;64758;52.122;5.404;2022-11-12T01:46:44;5.82;;;4.13;;
75413;SDS011;64758;52.122;5.404;2022-11-12T01:52:47;6.43;;;4.25;;
75413;SDS011;64758;52.122;5.404;2022-11-12T01:55:10;7.82;;;4.60;;
75413;SDS011;64758;52.122;5.404;2022-11-12T01:57:49;8.43;;;4.07;;
75413;SDS011;64758;52.122;5.404;2022-11-12T02:00:21;5.20;;;3.50;;
75413;SDS011;64758;52.122;5.404;2022-11-12T02:02:52;14.65;;;6.07;;
75413;SDS011;64758;52.122;5.404;2022-11-12T02:05:22;11.75;;;5.15;;
75413;SDS011;64758;52.122;5.404;2022-11-12T02:07:50;11.68;;;4.15;;
75413;SDS011;64758;52.122;5.404;2022-11-12T02:10:18;18.23;;;5.07;;
75413;SDS011;64758;52.122;5.404;2022-11-12T02:12:46;27.55;;;5.50;;
75413;SDS011;64758;52.122;5.404;2022-11-12T02:15:33;14.65;;;4.90;;
75413;SDS011;64758;52.122;5.404;2022-11-12T02:18:00;11.13;;;4.25;;
75413;SDS011;64758;52.122;5.404;2022-11-12T02:20:26;10.98;;;4.00;;
75413;SDS011;64758;52.122;5.404;2022-11-12T02:22:58;6.43;;;4.20;;
75413;SDS011;64758;52.122;5.404;2022-11-12T02:25:25;7.70;;;4.43;;
75413;SDS011;64758;52.122;5.404;2022-11-12T02:27:53;9.85;;;5.55;;
75413;SDS011;64758;52.122;5.404;2022-11-12T02:33:04;12.23;;;5.43;;
75413;SDS011;64758;52.122;5.404;2022-11-12T02:35:30;13.57;;;6.07;;
75413;SDS011;64758;52.122;5.404;2022-11-12T02:37:57;11.98;;;5.72;;
75413;SDS011;64758;52.122;5.404;2022-11-12T02:40:24;11.75;;;5.65;;
75413;SDS011;64758;52.122;5.404;2022-11-12T02:42:51;11.80;;;4.28;;
75413;SDS011;64758;52.122;5.404;2022-11-12T02:45:17;10.48;;;4.32;;
75413;SDS011;64758;52.122;5.404;2022-11-12T02:47:44;9.00;;;5.13;;
75413;SDS011;64758;52.122;5.404;2022-11-12T02:50:11;10.43;;;4.50;;
75413;SDS011;64758;52.122;5.404;2022-11-12T02:52:38;11.25;;;5.00;;
75413;SDS011;64758;52.122;5.404;2022-11-12T02:55:08;12.88;;;4.57;;
75413;SDS011;64758;52.122;5.404;2022-11-12T02:57:36;12.90;;;4.80;;
75413;SDS011;64758;52.122;5.404;2022-11-12T03:00:04;23.87;;;4.80;;
75413;SDS011;64758;52.122;5.404;2022-11-12T03:02:33;37.05;;;6.18;;
75413;SDS011;64758;52.122;5.404;2022-11-12T03:04:59;18.13;;;5.70;;
75413;SDS011;64758;52.122;5.404;2022-11-12T03:07:26;20.85;;;5.82;;
75413;SDS011;64758;52.122;5.404;2022-11-12T03:09:52;36.03;;;6.07;;
75413;SDS011;64758;52.122;5.404;2022-11-12T03:12:19;19.57;;;6.20;;
75413;SDS011;64758;52.122;5.404;2022-11-12T03:14:45;16.73;;;5.60;;
75413;SDS011;64758;52.122;5.404;2022-11-12T03:17:12;11.88;;;5.13;;
75413;SDS011;64758;52.122;5.404;2022-11-12T03:19:38;17.38;;;5.72;;
75413;SDS011;64758;52.122;5.404;2022-11-12T03:22:05;19.33;;;6.40;;
75413;SDS011;64758;52.122;5.404;2022-11-12T03:24:31;15.40;;;4.70;;
75413;SDS011;64758;52.122;5.404;2022-11-12T03:26:58;27.80;;;4.90;;
75413;SDS011;64758;52.122;5.404;2022-11-12T03:29:24;28.13;;;5.82;;
75413;SDS011;64758;52.122;5.404;2022-11-12T03:31:52;16.73;;;5.15;;
75413;SDS011;64758;52.122;5.404;2022-11-12T03:34:18;17.50;;;5.95;;
75413;SDS011;64758;52.122;5.404;2022-11-12T03:36:44;12.13;;;5.37;;
75413;SDS011;64758;52.122;5.404;2022-11-12T03:39:11;17.83;;;5.63;;
75413;SDS011;64758;52.122;5.404;2022-11-12T03:41:37;20.25;;;5.75;;
75413;SDS011;64758;52.122;5.404;2022-11-12T03:44:04;11.43;;;5.40;;
75413;SDS011;64758;52.122;5.404;2022-11-12T03:46:30;9.00;;;5.03;;
75413;SDS011;64758;52.122;5.404;2022-11-12T03:48:57;9.23;;;5.03;;
75413;SDS011;64758;52.122;5.404;2022-11-12T03:51:25;27.20;;;5.72;;
75413;SDS011;64758;52.122;5.404;2022-11-12T03:53:51;19.88;;;5.90;;
75413;SDS011;64758;52.122;5.404;2022-11-12T03:56:17;15.90;;;5.70;;
75413;SDS011;64758;52.122;5.404;2022-11-12T03:58:44;12.85;;;5.30;;
75413;SDS011;64758;52.122;5.404;2022-11-12T04:01:10;12.77;;;5.33;;
75413;SDS011;64758;52.122;5.404;2022-11-12T04:03:37;11.80;;;5.82;;
75413;SDS011;64758;52.122;5.404;2022-11-12T04:06:03;8.88;;;5.07;;
75413;SDS011;64758;52.122;5.404;2022-11-12T04:08:49;11.25;;;5.25;;
75413;SDS011;64758;52.122;5.404;2022-11-12T04:11:15;11.07;;;5.35;;
75413;SDS011;64758;52.122;5.404;2022-11-12T04:13:42;7.97;;;4.93;;
75413;SDS011;64758;52.122;5.404;2022-11-12T04:19:00;13.13;;;6.20;;
75413;SDS011;64758;52.122;5.404;2022-11-12T04:21:47;14.07;;;6.60;;
75413;SDS011;64758;52.122;5.404;2022-11-12T04:27:21;11.43;;;5.73;;
75413;SDS011;64758;52.122;5.404;2022-11-12T04:29:52;11.90;;;6.30;;
75413;SDS011;64758;52.122;5.404;2022-11-12T04:32:39;28.25;;;7.70;;
75413;SDS011;64758;52.122;5.404;2022-11-12T04:35:11;29.17;;;7.20;;
75413;SDS011;64758;52.122;5.404;2022-11-12T04:37:38;28.63;;;6.63;;
75413;SDS011;64758;52.122;5.404;2022-11-12T04:40:14;17.03;;;5.63;;
75413;SDS011;64758;52.122;5.404;2022-11-12T04:43:02;39.53;;;6.97;;
75413;SDS011;64758;52.122;5.404;2022-11-12T04:45:48;18.80;;;6.55;;
75413;SDS011;64758;52.122;5.404;2022-11-12T04:48:17;22.63;;;6.78;;
75413;SDS011;64758;52.122;5.404;2022-11-12T04:50:46;20.55;;;7.43;;
75413;SDS011;64758;52.122;5.404;2022-11-12T04:53:14;23.80;;;7.60;;
75413;SDS011;64758;52.122;5.404;2022-11-12T04:55:41;22.20;;;7.93;;
75413;SDS011;64758;52.122;5.404;2022-11-12T04:58:07;18.52;;;8.00;;
75413;SDS011;64758;52.122;5.404;2022-11-12T05:00:34;20.63;;;7.40;;
75413;SDS011;64758;52.122;5.404;2022-11-12T05:03:00;16.15;;;7.28;;
75413;SDS011;64758;52.122;5.404;2022-11-12T05:05:27;37.40;;;8.03;;
75413;SDS011;64758;52.122;5.404;2022-11-12T05:07:59;32.03;;;8.13;;
75413;SDS011;64758;52.122;5.404;2022-11-12T05:10:27;31.60;;;7.70;;
75413;SDS011;64758;52.122;5.404;2022-11-12T05:12:53;21.20;;;7.43;;
75413;SDS011;64758;52.122;5.404;2022-11-12T05:15:20;19.98;;;6.88;;
75413;SDS011;64758;52.122;5.404;2022-11-12T05:17:47;21.20;;;7.40;;
75413;SDS011;64758;52.122;5.404;2022-11-12T05:20:13;47.72;;;7.25;;
75413;SDS011;64758;52.122;5.404;2022-11-12T05:22:40;38.30;;;6.97;;
75413;SDS011;64758;52.122;5.404;2022-11-12T05:25:13;36.00;;;7.03;;
75413;SDS011;64758;52.122;5.404;2022-11-12T05:27:39;24.73;;;6.88;;
75413;SDS011;64758;52.122;5.404;2022-11-12T05:30:06;21.43;;;6.37;;
75413;SDS011;64758;52.122;5.404;2022-11-12T05:32:33;15.30;;;6.80;;
75413;SDS011;64758;52.122;5.404;2022-11-12T05:34:59;28.98;;;7.55;;
75413;SDS011;64758;52.122;5.404;2022-11-12T05:37:26;11.10;;;6.88;;
75413;SDS011;64758;52.122;5.404;2022-11-12T05:39:52;25.35;;;7.55;;
75413;SDS011;64758;52.122;5.404;2022-11-12T05:42:19;21.67;;;7.13;;
75413;SDS011;64758;52.122;5.404;2022-11-12T05:44:45;18.15;;;7.15;;
75413;SDS011;64758;52.122;5.404;2022-11-12T05:47:12;19.40;;;7.30;;
75413;SDS011;64758;52.122;5.404;2022-11-12T05:49:38;31.67;;;7.40;;
75413;SDS011;64758;52.122;5.404;2022-11-12T05:52:05;12.77;;;6.72;;
75413;SDS011;64758;52.122;5.404;2022-11-12T05:54:31;20.40;;;6.90;;
75413;SDS011;64758;52.122;5.404;2022-11-12T05:56:57;18.85;;;7.10;;
75413;SDS011;64758;52.122;5.404;2022-11-12T05:59:24;12.88;;;7.05;;
75413;SDS011;64758;52.122;5.404;2022-11-12T06:01:50;12.30;;;6.80;;
75413;SDS011;64758;52.122;5.404;2022-11-12T06:04:17;14.93;;;6.88;;
75413;SDS011;64758;52.122;5.404;2022-11-12T06:06:43;15.20;;;6.80;;
75413;SDS011;64758;52.122;5.404;2022-11-12T06:09:10;17.27;;;6.65;;
75413;SDS011;64758;52.122;5.404;2022-11-12T06:11:37;22.45;;;6.88;;
75413;SDS011;64758;52.122;5.404;2022-11-12T06:14:04;17.80;;;7.28;;
75413;SDS011;64758;52.122;5.404;2022-11-12T06:16:31;23.33;;;6.82;;
75413;SDS011;64758;52.122;5.404;2022-11-12T06:18:58;12.23;;;6.53;;
75413;SDS011;64758;52.122;5.404;2022-11-12T06:21:24;13.63;;;6.68;;
75413;SDS011;64758;52.122;5.404;2022-11-12T06:23:56;21.20;;;6.47;;
75413;SDS011;64758;52.122;5.404;2022-11-12T06:26:25;17.17;;;7.25;;
75413;SDS011;64758;52.122;5.404;2022-11-12T06:28:53;23.92;;;7.22;;
75413;SDS011;64758;52.122;5.404;2022-11-12T06:31:20;12.47;;;7.13;;
75413;SDS011;64758;52.122;5.404;2022-11-12T06:33:47;11.88;;;6.72;;
75413;SDS011;64758;52.122;5.404;2022-11-12T06:36:16;11.93;;;6.95;;
75413;SDS011;64758;52.122;5.404;2022-11-12T06:38:44;11.07;;;6.45;;
75413;SDS011;64758;52.122;5.404;2022-11-12T06:41:12;13.02;;;6.82;;
75413;SDS011;64758;52.122;5.404;2022-11-12T06:43:39;13.63;;;6.83;;
75413;SDS011;64758;52.122;5.404;2022-11-12T06:46:09;12.50;;;6.57;;
75413;SDS011;64758;52.122;5.404;2022-11-12T06:48:37;13.55;;;6.70;;
75413;SDS011;64758;52.122;5.404;2022-11-12T06:51:08;14.63;;;7.22;;
75413;SDS011;64758;52.122;5.404;2022-11-12T06:53:45;12.68;;;6.38;;
75413;SDS011;64758;52.122;5.404;2022-11-12T06:56:12;13.50;;;6.30;;
75413;SDS011;64758;52.122;5.404;2022-11-12T06:58:39;10.25;;;6.50;;
75413;SDS011;64758;52.122;5.404;2022-11-12T07:01:13;12.45;;;6.65;;
75413;SDS011;64758;52.122;5.404;2022-11-12T07:03:42;14.18;;;6.43;;
75413;SDS011;64758;52.122;5.404;2022-11-12T07:06:13;14.02;;;6.57;;
75413;SDS011;64758;52.122;5.404;2022-11-12T07:08:44;12.07;;;6.60;;
75413;SDS011;64758;52.122;5.404;2022-11-12T07:11:15;11.38;;;6.15;;
75413;SDS011;64758;52.122;5.404;2022-11-12T07:13:43;13.88;;;7.40;;
75413;SDS011;64758;52.122;5.404;2022-11-12T07:16:10;12.38;;;6.70;;
75413;SDS011;64758;52.122;5.404;2022-11-12T07:18:37;13.73;;;6.63;;
75413;SDS011;64758;52.122;5.404;2022-11-12T07:21:05;12.60;;;7.13;;
75413;SDS011;64758;52.122;5.404;2022-11-12T07:23:34;14.80;;;7.53;;
75413;SDS011;64758;52.122;5.404;2022-11-12T07:26:03;13.07;;;7.28;;
75413;SDS011;64758;52.122;5.404;2022-11-12T07:28:37;13.73;;;7.28;;
75413;SDS011;64758;52.122;5.404;2022-11-12T07:31:05;13.73;;;7.20;;
75413;SDS011;64758;52.122;5.404;2022-11-12T07:33:33;18.03;;;7.60;;
75413;SDS011;64758;52.122;5.404;2022-11-12T07:36:00;12.13;;;6.53;;
75413;SDS011;64758;52.122;5.404;2022-11-12T07:38:29;15.30;;;7.57;;
75413;SDS011;64758;52.122;5.404;2022-11-12T07:40:57;14.45;;;7.97;;
75413;SDS011;64758;52.122;5.404;2022-11-12T07:43:29;13.43;;;7.22;;
75413;SDS011;64758;52.122;5.404;2022-11-12T07:45:56;11.43;;;6.30;;
75413;SDS011;64758;52.122;5.404;2022-11-12T07:48:36;11.82;;;7.10;;
75413;SDS011;64758;52.122;5.404;2022-11-12T07:51:06;13.52;;;6.82;;
75413;SDS011;64758;52.122;5.404;2022-11-12T07:53:41;12.80;;;6.47;;
75413;SDS011;64758;52.122;5.404;2022-11-12T07:56:12;12.27;;;7.57;;
75413;SDS011;64758;52.122;5.404;2022-11-12T07:58:41;11.90;;;7.47;;
75413;SDS011;64758;52.122;5.404;2022-11-12T08:04:01;12.68;;;6.90;;
75413;SDS011;64758;52.122;5.404;2022-11-12T08:06:30;11.88;;;7.20;;
75413;SDS011;64758;52.122;5.404;2022-11-12T08:08:58;11.10;;;6.82;;
75413;SDS011;64758;52.122;5.404;2022-11-12T08:11:26;9.93;;;6.47;;
75413;SDS011;64758;52.122;5.404;2022-11-12T08:13:53;9.77;;;6.65;;
75413;SDS011;64758;52.122;5.404;2022-11-12T08:16:19;11.15;;;6.85;;
75413;SDS011;64758;52.122;5.404;2022-11-12T08:18:46;9.55;;;6.70;;
75413;SDS011;64758;52.122;5.404;2022-11-12T08:21:14;9.95;;;6.97;;
75413;SDS011;64758;52.122;5.404;2022-11-12T08:23:42;10.70;;;7.17;;
75413;SDS011;64758;52.122;5.404;2022-11-12T08:26:13;12.65;;;7.65;;
75413;SDS011;64758;52.122;5.404;2022-11-12T08:28:42;15.80;;;9.02;;
75413;SDS011;64758;52.122;5.404;2022-11-12T08:31:10;17.13;;;9.82;;
75413;SDS011;64758;52.122;5.404;2022-11-12T08:33:39;14.93;;;9.65;;
75413;SDS011;64758;52.122;5.404;2022-11-12T08:36:07;16.00;;;10.97;;
75413;SDS011;64758;52.122;5.404;2022-11-12T08:38:35;15.63;;;9.65;;
75413;SDS011;64758;52.122;5.404;2022-11-12T08:41:03;17.63;;;10.45;;
75413;SDS011;64758;52.122;5.404;2022-11-12T08:43:31;14.80;;;10.25;;
75413;SDS011;64758;52.122;5.404;2022-11-12T08:45:58;16.50;;;10.10;;
75413;SDS011;64758;52.122;5.404;2022-11-12T08:48:26;15.70;;;9.97;;
75413;SDS011;64758;52.122;5.404;2022-11-12T08:50:54;15.13;;;10.07;;
75413;SDS011;64758;52.122;5.404;2022-11-12T08:53:22;14.27;;;9.38;;
75413;SDS011;64758;52.122;5.404;2022-11-12T08:55:52;15.60;;;10.15;;
75413;SDS011;64758;52.122;5.404;2022-11-12T08:58:20;16.67;;;9.68;;
75413;SDS011;64758;52.122;5.404;2022-11-12T09:00:47;16.77;;;9.60;;
75413;SDS011;64758;52.122;5.404;2022-11-12T09:03:17;16.65;;;9.55;;
75413;SDS011;64758;52.122;5.404;2022-11-12T09:05:46;16.88;;;9.35;;
75413;SDS011;64758;52.122;5.404;2022-11-12T09:08:14;20.42;;;8.85;;
75413;SDS011;64758;52.122;5.404;2022-11-12T09:10:45;12.77;;;8.63;;
75413;SDS011;64758;52.122;5.404;2022-11-12T09:13:12;17.97;;;10.27;;
75413;SDS011;64758;52.122;5.404;2022-11-12T09:15:39;12.50;;;9.10;;
75413;SDS011;64758;52.122;5.404;2022-11-12T09:18:07;12.98;;;9.32;;
75413;SDS011;64758;52.122;5.404;2022-11-12T09:20:38;15.13;;;10.13;;
75413;SDS011;64758;52.122;5.404;2022-11-12T09:23:06;15.48;;;9.90;;
75413;SDS011;64758;52.122;5.404;2022-11-12T09:25:34;12.47;;;8.83;;
75413;SDS011;64758;52.122;5.404;2022-11-12T09:28:08;16.63;;;8.93;;
75413;SDS011;64758;52.122;5.404;2022-11-12T09:30:42;14.10;;;8.88;;
75413;SDS011;64758;52.122;5.404;2022-11-12T09:33:12;14.30;;;9.13;;
75413;SDS011;64758;52.122;5.404;2022-11-12T09:35:43;16.45;;;9.73;;
75413;SDS011;64758;52.122;5.404;2022-11-12T09:38:10;13.43;;;8.53;;
75413;SDS011;64758;52.122;5.404;2022-11-12T09:45:55;13.40;;;9.30;;
75413;SDS011;64758;52.122;5.404;2022-11-12T09:48:47;15.20;;;9.07;;
75413;SDS011;64758;52.122;5.404;2022-11-12T09:51:24;10.90;;;8.47;;
75413;SDS011;64758;52.122;5.404;2022-11-12T09:53:54;13.15;;;9.55;;
75413;SDS011;64758;52.122;5.404;2022-11-12T09:56:23;14.15;;;8.35;;
75413;SDS011;64758;52.122;5.404;2022-11-12T09:58:51;11.75;;;8.80;;
75413;SDS011;64758;52.122;5.404;2022-11-12T10:01:39;13.73;;;8.60;;
75413;SDS011;64758;52.122;5.404;2022-11-12T10:07:08;10.30;;;7.95;;
75413;SDS011;64758;52.122;5.404;2022-11-12T10:12:30;16.10;;;8.80;;
75413;SDS011;64758;52.122;5.404;2022-11-12T10:21:09;12.95;;;8.38;;
75413;SDS011;64758;52.122;5.404;2022-11-12T10:26:17;13.10;;;8.10;;
75413;SDS011;64758;52.122;5.404;2022-11-12T10:28:46;12.82;;;7.72;;
75413;SDS011;64758;52.122;5.404;2022-11-12T10:31:16;12.60;;;8.93;;
75413;SDS011;64758;52.122;5.404;2022-11-12T10:33:45;13.03;;;8.90;;
75413;SDS011;64758;52.122;5.404;2022-11-12T10:39:28;10.80;;;8.52;;
75413;SDS011;64758;52.122;5.404;2022-11-12T10:42:07;13.73;;;9.02;;
75413;SDS011;64758;52.122;5.404;2022-11-12T10:44:38;10.75;;;8.20;;
75413;SDS011;64758;52.122;5.404;2022-11-12T10:52:33;11.75;;;8.02;;
75413;SDS011;64758;52.122;5.404;2022-11-12T10:58:11;9.73;;;7.53;;
75413;SDS011;64758;52.122;5.404;2022-11-12T11:03:35;10.27;;;7.05;;
75413;SDS011;64758;52.122;5.404;2022-11-12T11:08:41;10.38;;;6.78;;
75413;SDS011;64758;52.122;5.404;2022-11-12T11:13:43;8.50;;;6.20;;
75413;SDS011;64758;52.122;5.404;2022-11-12T11:18:40;6.97;;;5.85;;
75413;SDS011;64758;52.122;5.404;2022-11-12T11:37:37;6.55;;;5.60;;
75413;SDS011;64758;52.122;5.404;2022-11-12T11:40:27;8.20;;;5.97;;
75413;SDS011;64758;52.122;5.404;2022-11-12T11:43:08;7.70;;;5.78;;
75413;SDS011;64758;52.122;5.404;2022-11-12T11:51:32;7.28;;;6.00;;
75413;SDS011;64758;52.122;5.404;2022-11-12T11:56:55;7.90;;;5.70;;
75413;SDS011;64758;52.122;5.404;2022-11-12T12:02:48;7.50;;;5.25;;
75413;SDS011;64758;52.122;5.404;2022-11-12T12:08:17;8.23;;;5.50;;
75413;SDS011;64758;52.122;5.404;2022-11-12T12:16:25;8.32;;;4.82;;
75413;SDS011;64758;52.122;5.404;2022-11-12T12:21:32;5.27;;;4.47;;
75413;SDS011;64758;52.122;5.404;2022-11-12T12:24:17;7.03;;;4.70;;
75413;SDS011;64758;52.122;5.404;2022-11-12T12:26:53;6.53;;;4.60;;
75413;SDS011;64758;52.122;5.404;2022-11-12T12:32:03;9.35;;;6.28;;
75413;SDS011;64758;52.122;5.404;2022-11-12T12:34:37;5.73;;;4.43;;
75413;SDS011;64758;52.122;5.404;2022-11-12T12:37:16;7.15;;;4.40;;
75413;SDS011;64758;52.122;5.404;2022-11-12T12:39:54;6.38;;;4.45;;
75413;SDS011;64758;52.122;5.404;2022-11-12T12:42:42;7.65;;;4.50;;
75413;SDS011;64758;52.122;5.404;2022-11-12T12:45:22;5.82;;;4.15;;
75413;SDS011;64758;52.122;5.404;2022-11-12T12:48:01;5.03;;;4.03;;
75413;SDS011;64758;52.122;5.404;2022-11-12T12:50:31;6.70;;;4.38;;
75413;SDS011;64758;52.122;5.404;2022-11-12T12:53:02;6.90;;;4.40;;
75413;SDS011;64758;52.122;5.404;2022-11-12T12:55:42;6.00;;;4.88;;
75413;SDS011;64758;52.122;5.404;2022-11-12T12:58:18;6.85;;;4.88;;
75413;SDS011;64758;52.122;5.404;2022-11-12T13:00:48;7.43;;;4.50;;
75413;SDS011;64758;52.122;5.404;2022-11-12T13:06:30;6.78;;;5.53;;
75413;SDS011;64758;52.122;5.404;2022-11-12T13:09:00;8.27;;;5.43;;
75413;SDS011;64758;52.122;5.404;2022-11-12T13:17:02;7.38;;;5.35;;
75413;SDS011;64758;52.122;5.404;2022-11-12T13:20:14;12.40;;;5.60;;
75413;SDS011;64758;52.122;5.404;2022-11-12T13:30:10;10.95;;;5.40;;
75413;SDS011;64758;52.122;5.404;2022-11-12T13:32:56;7.88;;;5.10;;
75413;SDS011;64758;52.122;5.404;2022-11-12T13:35:25;6.18;;;5.57;;
75413;SDS011;64758;52.122;5.404;2022-11-12T13:40:48;6.97;;;5.77;;
75413;SDS011;64758;52.122;5.404;2022-11-12T13:46:11;8.90;;;6.30;;
75413;SDS011;64758;52.122;5.404;2022-11-12T13:48:55;7.20;;;5.90;;
75413;SDS011;64758;52.122;5.404;2022-11-12T13:54:22;6.73;;;5.80;;
75413;SDS011;64758;52.122;5.404;2022-11-12T13:56:53;8.43;;;6.10;;
75413;SDS011;64758;52.122;5.404;2022-11-12T13:59:21;7.82;;;6.00;;
75413;SDS011;64758;52.122;5.404;2022-11-12T14:01:51;8.32;;;5.97;;
75413;SDS011;64758;52.122;5.404;2022-11-12T14:04:19;8.82;;;6.63;;
75413;SDS011;64758;52.122;5.404;2022-11-12T14:07:05;10.53;;;6.67;;
75413;SDS011;64758;52.122;5.404;2022-11-12T14:12:40;10.25;;;8.82;;
75413;SDS011;64758;52.122;5.404;2022-11-12T14:15:49;12.35;;;9.77;;
75413;SDS011;64758;52.122;5.404;2022-11-12T14:20:48;11.50;;;9.67;;
75413;SDS011;64758;52.122;5.404;2022-11-12T14:23:15;15.25;;;11.75;;
75413;SDS011;64758;52.122;5.404;2022-11-12T14:25:50;19.60;;;13.40;;
75413;SDS011;64758;52.122;5.404;2022-11-12T14:28:22;21.50;;;15.05;;
75413;SDS011;64758;52.122;5.404;2022-11-12T14:30:56;20.90;;;14.15;;
75413;SDS011;64758;52.122;5.404;2022-11-12T14:33:23;20.00;;;13.47;;
75413;SDS011;64758;52.122;5.404;2022-11-12T14:35:52;15.48;;;12.13;;
75413;SDS011;64758;52.122;5.404;2022-11-12T14:38:28;19.52;;;12.00;;
75413;SDS011;64758;52.122;5.404;2022-11-12T14:41:41;15.80;;;11.02;;
75413;SDS011;64758;52.122;5.404;2022-11-12T14:43:51;14.45;;;10.95;;
75413;SDS011;64758;52.122;5.404;2022-11-12T14:52:21;11.50;;;9.07;;
75413;SDS011;64758;52.122;5.404;2022-11-12T14:54:53;11.10;;;8.70;;
75413;SDS011;64758;52.122;5.404;2022-11-12T14:57:27;13.38;;;8.75;;
75413;SDS011;64758;52.122;5.404;2022-11-12T14:59:56;9.80;;;7.80;;
75413;SDS011;64758;52.122;5.404;2022-11-12T15:02:27;10.80;;;7.55;;
75413;SDS011;64758;52.122;5.404;2022-11-12T15:05:18;13.55;;;7.25;;
75413;SDS011;64758;52.122;5.404;2022-11-12T15:07:58;10.02;;;7.10;;
75413;SDS011;64758;52.122;5.404;2022-11-12T15:13:03;10.63;;;6.63;;
75413;SDS011;64758;52.122;5.404;2022-11-12T15:15:33;9.57;;;7.00;;
75413;SDS011;64758;52.122;5.404;2022-11-12T15:18:06;11.18;;;8.10;;
75413;SDS011;64758;52.122;5.404;2022-11-12T15:20:41;9.70;;;7.60;;
75413;SDS011;64758;52.122;5.404;2022-11-12T15:23:14;9.70;;;7.40;;
75413;SDS011;64758;52.122;5.404;2022-11-12T15:25:44;13.83;;;8.40;;
75413;SDS011;64758;52.122;5.404;2022-11-12T15:28:21;13.43;;;8.88;;
75413;SDS011;64758;52.122;5.404;2022-11-12T15:31:05;15.05;;;9.52;;
75413;SDS011;64758;52.122;5.404;2022-11-12T15:33:40;14.90;;;10.15;;
75413;SDS011;64758;52.122;5.404;2022-11-12T15:36:17;15.10;;;8.80;;
75413;SDS011;64758;52.122;5.404;2022-11-12T15:38:50;11.70;;;8.50;;
75413;SDS011;64758;52.122;5.404;2022-11-12T15:41:25;11.07;;;7.78;;
75413;SDS011;64758;52.122;5.404;2022-11-12T15:43:54;11.55;;;8.07;;
75413;SDS011;64758;52.122;5.404;2022-11-12T15:46:21;14.73;;;8.02;;
75413;SDS011;64758;52.122;5.404;2022-11-12T15:48:48;14.30;;;7.88;;
75413;SDS011;64758;52.122;5.404;2022-11-12T15:51:21;12.87;;;7.00;;
75413;SDS011;64758;52.122;5.404;2022-11-12T15:53:47;10.95;;;7.25;;
75413;SDS011;64758;52.122;5.404;2022-11-12T15:56:15;10.85;;;7.82;;
75413;SDS011;64758;52.122;5.404;2022-11-12T15:58:44;11.68;;;7.85;;
75413;SDS011;64758;52.122;5.404;2022-11-12T16:01:11;12.90;;;7.65;;
75413;SDS011;64758;52.122;5.404;2022-11-12T16:03:38;14.80;;;7.23;;
75413;SDS011;64758;52.122;5.404;2022-11-12T16:06:04;13.52;;;8.82;;
75413;SDS011;64758;52.122;5.404;2022-11-12T16:08:34;19.67;;;9.60;;
75413;SDS011;64758;52.122;5.404;2022-11-12T16:11:01;16.67;;;10.35;;
75413;SDS011;64758;52.122;5.404;2022-11-12T16:13:28;17.77;;;10.98;;
75413;SDS011;64758;52.122;5.404;2022-11-12T16:15:59;16.60;;;10.77;;
75413;SDS011;64758;52.122;5.404;2022-11-12T16:18:28;16.58;;;10.57;;
75413;SDS011;64758;52.122;5.404;2022-11-12T16:20:56;14.05;;;9.80;;
75413;SDS011;64758;52.122;5.404;2022-11-12T16:23:22;16.10;;;9.98;;
75413;SDS011;64758;52.122;5.404;2022-11-12T16:25:49;17.38;;;10.20;;
75413;SDS011;64758;52.122;5.404;2022-11-12T16:28:16;16.65;;;9.35;;
75413;SDS011;64758;52.122;5.404;2022-11-12T16:30:44;15.75;;;8.85;;
75413;SDS011;64758;52.122;5.404;2022-11-12T16:33:12;16.45;;;8.98;;
75413;SDS011;64758;52.122;5.404;2022-11-12T16:35:39;14.57;;;9.32;;
75413;SDS011;64758;52.122;5.404;2022-11-12T16:38:11;13.32;;;8.88;;
75413;SDS011;64758;52.122;5.404;2022-11-12T16:40:40;12.60;;;8.33;;
75413;SDS011;64758;52.122;5.404;2022-11-12T16:43:07;16.45;;;8.63;;
75413;SDS011;64758;52.122;5.404;2022-11-12T16:45:35;13.52;;;8.07;;
75413;SDS011;64758;52.122;5.404;2022-11-12T16:48:11;12.50;;;7.93;;
75413;SDS011;64758;52.122;5.404;2022-11-12T16:50:43;10.77;;;7.23;;
75413;SDS011;64758;52.122;5.404;2022-11-12T16:53:11;11.88;;;7.25;;
75413;SDS011;64758;52.122;5.404;2022-11-12T16:55:37;11.27;;;8.43;;
75413;SDS011;64758;52.122;5.404;2022-11-12T16:58:04;13.93;;;7.97;;
75413;SDS011;64758;52.122;5.404;2022-11-12T17:00:30;11.43;;;8.00;;
75413;SDS011;64758;52.122;5.404;2022-11-12T17:02:57;13.77;;;8.48;;
75413;SDS011;64758;52.122;5.404;2022-11-12T17:05:23;16.00;;;8.77;;
75413;SDS011;64758;52.122;5.404;2022-11-12T17:07:54;12.90;;;8.70;;
75413;SDS011;64758;52.122;5.404;2022-11-12T17:10:23;11.80;;;8.02;;
75413;SDS011;64758;52.122;5.404;2022-11-12T17:12:50;10.85;;;7.13;;
75413;SDS011;64758;52.122;5.404;2022-11-12T17:15:17;12.93;;;7.20;;